createdAt,value
2023-02-15T00:01:02.000Z,0
2023-02-15T00:02:18.000Z,0
2023-02-15T00:03:34.000Z,0
2023-02-15T00:04:51.054Z,0
2023-02-15T00:06:07.000Z,0
2023-02-15T00:07:23.638Z,0
2023-02-15T00:08:39.933Z,0
2023-02-15T00:09:56.227Z,0
2023-02-15T00:11:11.000Z,0
2023-02-15T00:12:27.000Z,0
2023-02-15T00:13:44.000Z,0
2023-02-15T00:15:00.432Z,0
2023-02-15T00:16:16.000Z,0
2023-02-15T00:17:33.000Z,0
2023-02-15T00:18:49.307Z,0
2023-02-15T00:20:05.741Z,0
2023-02-15T00:21:22.048Z,0
2023-02-15T00:22:37.362Z,0
2023-02-15T00:23:53.000Z,0
2023-02-15T00:25:09.000Z,0
2023-02-15T00:26:26.000Z,0
2023-02-15T00:27:42.524Z,0
2023-02-15T00:28:58.000Z,0
2023-02-15T00:30:15.117Z,0
2023-02-15T00:31:31.409Z,0
2023-02-15T00:32:47.709Z,0
2023-02-15T00:34:03.999Z,0
2023-02-15T00:35:20.297Z,0
2023-02-15T00:36:36.588Z,0
2023-02-15T00:37:52.875Z,0
2023-02-15T00:39:09.000Z,0
2023-02-15T00:40:24.478Z,0
2023-02-15T00:41:40.777Z,0
2023-02-15T00:42:57.079Z,0
2023-02-15T00:44:13.000Z,0
2023-02-15T00:45:29.661Z,0
2023-02-15T00:46:45.000Z,0
2023-02-15T00:48:00.000Z,0
2023-02-15T00:49:15.000Z,0
2023-02-15T00:50:30.931Z,0
2023-02-15T00:51:47.000Z,0
2023-02-15T00:53:03.500Z,0
2023-02-15T00:54:19.000Z,0
2023-02-15T00:55:36.099Z,0
2023-02-15T00:56:52.397Z,0
2023-02-15T00:58:08.680Z,0
2023-02-15T00:59:25.000Z,0
2023-02-15T01:00:41.277Z,0
2023-02-15T01:01:57.000Z,0
2023-02-15T01:03:13.000Z,0
2023-02-15T01:04:30.150Z,0
2023-02-15T01:05:46.439Z,0
2023-02-15T01:07:01.748Z,0
2023-02-15T01:08:18.047Z,0
2023-02-15T01:09:34.337Z,0
2023-02-15T01:10:50.000Z,0
2023-02-15T01:12:06.000Z,0
2023-02-15T01:13:23.226Z,0
2023-02-15T01:14:39.000Z,0
2023-02-15T01:15:55.812Z,0
2023-02-15T01:17:11.135Z,0
2023-02-15T01:18:26.454Z,0
2023-02-15T01:19:42.736Z,0
2023-02-15T01:20:59.000Z,0
2023-02-15T01:22:15.000Z,0
2023-02-15T01:23:31.618Z,0
2023-02-15T01:24:47.000Z,0
2023-02-15T01:26:04.000Z,0
2023-02-15T01:27:20.503Z,0
2023-02-15T01:28:36.797Z,0
2023-02-15T01:29:53.000Z,0
2023-02-15T01:31:09.382Z,0
2023-02-15T01:32:25.000Z,0
2023-02-15T01:33:41.000Z,0
2023-02-15T01:34:57.000Z,0
2023-02-15T01:36:13.581Z,0
2023-02-15T01:37:29.000Z,0
2023-02-15T01:38:46.176Z,0
2023-02-15T01:40:02.454Z,0
2023-02-15T01:41:18.000Z,0
2023-02-15T01:42:35.000Z,0
2023-02-15T01:43:51.000Z,0
2023-02-15T01:45:06.000Z,0
2023-02-15T01:46:21.000Z,0
2023-02-15T01:47:38.000Z,0
2023-02-15T01:48:54.000Z,0
2023-02-15T01:50:10.845Z,0
2023-02-15T01:51:27.160Z,0
2023-02-15T01:52:43.000Z,0
2023-02-15T01:53:59.730Z,0
2023-02-15T01:55:16.000Z,0
2023-02-15T01:56:32.319Z,0
2023-02-15T01:57:48.000Z,0
2023-02-15T01:59:04.926Z,0
2023-02-15T02:00:21.204Z,0
2023-02-15T02:01:37.502Z,0
2023-02-15T02:02:52.000Z,0
2023-02-15T02:04:09.101Z,0
2023-02-15T02:05:25.000Z,0
2023-02-15T02:06:41.000Z,0
2023-02-15T02:07:58.000Z,0
2023-02-15T02:09:14.282Z,0
2023-02-15T02:10:30.570Z,0
2023-02-15T02:11:46.869Z,0
2023-02-15T02:13:03.000Z,0
2023-02-15T02:14:19.463Z,0
2023-02-15T02:15:35.000Z,0
2023-02-15T02:16:52.050Z,0
2023-02-15T02:18:08.000Z,0
2023-02-15T02:19:23.000Z,0
2023-02-15T02:20:39.000Z,0
2023-02-15T02:21:56.236Z,0
2023-02-15T02:23:12.529Z,0
2023-02-15T02:24:28.826Z,0
2023-02-15T02:25:45.000Z,0
2023-02-15T02:27:01.000Z,0
2023-02-15T02:28:17.000Z,0
2023-02-15T02:29:34.000Z,0
2023-02-15T02:30:50.000Z,0
2023-02-15T02:32:06.599Z,0
2023-02-15T02:33:22.888Z,0
2023-02-15T02:34:39.000Z,0
2023-02-15T02:35:55.000Z,0
2023-02-15T02:37:10.000Z,0
2023-02-15T02:38:26.000Z,0
2023-02-15T02:39:42.397Z,0
2023-02-15T02:40:58.692Z,0
2023-02-15T02:42:15.000Z,0
2023-02-15T02:43:31.000Z,0
2023-02-15T02:44:47.581Z,0
2023-02-15T02:46:03.871Z,0
2023-02-15T02:47:20.162Z,0
2023-02-15T02:48:36.000Z,0
2023-02-15T02:49:52.000Z,0
2023-02-15T02:51:09.000Z,0
2023-02-15T02:52:25.333Z,0
2023-02-15T02:53:41.000Z,0
2023-02-15T02:54:56.945Z,0
2023-02-15T02:56:13.239Z,0
2023-02-15T02:57:29.538Z,0
2023-02-15T02:58:45.000Z,0
2023-02-15T03:00:02.119Z,0
2023-02-15T03:01:18.000Z,0
2023-02-15T03:02:34.726Z,0
2023-02-15T03:03:51.000Z,0
2023-02-15T03:05:07.295Z,0
2023-02-15T03:06:23.592Z,0
2023-02-15T03:07:39.888Z,0
2023-02-15T03:08:56.000Z,0
2023-02-15T03:10:12.483Z,0
2023-02-15T03:11:27.000Z,0
2023-02-15T03:12:44.000Z,0
2023-02-15T03:14:00.000Z,0
2023-02-15T03:15:16.000Z,0
2023-02-15T03:16:32.970Z,0
2023-02-15T03:17:49.258Z,0
2023-02-15T03:19:05.000Z,0
2023-02-15T03:20:21.000Z,0
2023-02-15T03:21:38.000Z,0
2023-02-15T03:22:54.436Z,0
2023-02-15T03:24:10.000Z,0
2023-02-15T03:25:27.018Z,0
2023-02-15T03:26:43.326Z,0
2023-02-15T03:27:59.616Z,0
2023-02-15T03:29:14.000Z,0
2023-02-15T03:30:31.000Z,0
2023-02-15T03:31:47.000Z,0
2023-02-15T03:33:03.000Z,0
2023-02-15T03:34:20.000Z,0
2023-02-15T03:35:36.000Z,0
2023-02-15T03:36:52.693Z,0
2023-02-15T03:38:08.996Z,0
2023-02-15T03:39:25.000Z,0
2023-02-15T03:40:41.570Z,0
2023-02-15T03:41:57.000Z,0
2023-02-15T03:43:14.000Z,0
2023-02-15T03:44:30.000Z,0
2023-02-15T03:45:46.000Z,0
2023-02-15T03:47:02.000Z,0
2023-02-15T03:48:18.356Z,0
2023-02-15T03:49:34.652Z,0
2023-02-15T03:50:50.000Z,0
2023-02-15T03:52:07.000Z,0
2023-02-15T03:53:23.000Z,0
2023-02-15T03:54:39.000Z,0
2023-02-15T03:55:56.130Z,0
2023-02-15T03:57:12.000Z,0
2023-02-15T03:58:28.715Z,0
2023-02-15T03:59:45.021Z,0
2023-02-15T04:01:01.000Z,0
2023-02-15T04:02:17.000Z,0
2023-02-15T04:03:32.907Z,0
2023-02-15T04:04:49.000Z,0
2023-02-15T04:06:05.000Z,0
2023-02-15T04:07:21.000Z,0
2023-02-15T04:08:38.091Z,0
2023-02-15T04:09:54.370Z,0
2023-02-15T04:11:10.686Z,0
2023-02-15T04:12:26.000Z,0
2023-02-15T04:13:43.000Z,0
2023-02-15T04:14:59.000Z,0
2023-02-15T04:16:15.000Z,0
2023-02-15T04:17:32.000Z,0
2023-02-15T04:18:48.452Z,0
2023-02-15T04:20:03.746Z,0
2023-02-15T04:21:20.041Z,0
2023-02-15T04:22:36.000Z,0
2023-02-15T04:23:52.630Z,0
2023-02-15T04:25:08.000Z,0
2023-02-15T04:26:25.217Z,0
2023-02-15T04:27:41.000Z,0
2023-02-15T04:28:57.000Z,0
2023-02-15T04:30:14.103Z,0
2023-02-15T04:31:30.395Z,0
2023-02-15T04:32:46.685Z,0
2023-02-15T04:34:02.986Z,0
2023-02-15T04:35:19.000Z,0
2023-02-15T04:36:34.000Z,0
2023-02-15T04:37:50.000Z,0
2023-02-15T04:39:07.179Z,0
2023-02-15T04:40:23.000Z,0
2023-02-15T04:41:39.769Z,0
2023-02-15T04:42:56.000Z,0
2023-02-15T04:44:12.369Z,0
2023-02-15T04:45:28.654Z,0
2023-02-15T04:46:44.000Z,0
2023-02-15T04:48:01.000Z,0
2023-02-15T04:49:17.533Z,0
2023-02-15T04:50:33.000Z,0
2023-02-15T04:51:50.000Z,0
2023-02-15T04:53:05.000Z,0
2023-02-15T04:54:21.722Z,0
2023-02-15T04:55:38.028Z,0
2023-02-15T04:56:54.000Z,0
2023-02-15T04:58:10.000Z,0
2023-02-15T04:59:26.000Z,0
2023-02-15T05:00:43.000Z,0
2023-02-15T05:01:59.495Z,0
2023-02-15T05:03:15.000Z,0
2023-02-15T05:04:32.082Z,0
2023-02-15T05:05:48.378Z,0
2023-02-15T05:07:04.000Z,0
2023-02-15T05:08:20.000Z,0
2023-02-15T05:09:36.286Z,0
2023-02-15T05:10:52.000Z,0
2023-02-15T05:12:08.000Z,0
2023-02-15T05:13:25.000Z,0
2023-02-15T05:14:41.000Z,0
2023-02-15T05:15:57.755Z,0
2023-02-15T05:17:14.042Z,0
2023-02-15T05:18:30.329Z,0
2023-02-15T05:19:46.000Z,0
2023-02-15T05:21:02.000Z,0
2023-02-15T05:22:19.000Z,0
2023-02-15T05:23:35.000Z,0
2023-02-15T05:24:51.813Z,0
2023-02-15T05:26:08.103Z,0
2023-02-15T05:27:23.424Z,0
2023-02-15T05:28:39.000Z,0
2023-02-15T05:29:56.009Z,0
2023-02-15T05:31:12.000Z,0
2023-02-15T05:32:28.000Z,0
2023-02-15T05:33:44.000Z,0
2023-02-15T05:35:01.000Z,0
2023-02-15T05:36:17.475Z,0
2023-02-15T05:37:33.770Z,0
2023-02-15T05:38:50.056Z,0
2023-02-15T05:40:06.000Z,0
2023-02-15T05:41:22.000Z,0
2023-02-15T05:42:38.953Z,0
2023-02-15T05:43:55.000Z,0
2023-02-15T05:45:10.000Z,1
2023-02-15T05:46:26.000Z,0
2023-02-15T05:47:43.000Z,1
2023-02-15T05:48:59.286Z,1
2023-02-15T05:50:15.531Z,1
2023-02-15T05:51:31.000Z,0
2023-02-15T05:52:48.000Z,0
2023-02-15T05:54:04.000Z,2
2023-02-15T05:55:20.000Z,1
2023-02-15T05:56:36.000Z,0
2023-02-15T05:57:53.155Z,5
2023-02-15T05:59:09.398Z,3
2023-02-15T06:00:25.633Z,1
2023-02-15T06:01:41.870Z,3
2023-02-15T06:02:57.000Z,2
2023-02-15T06:04:13.000Z,3
2023-02-15T06:05:29.624Z,3
2023-02-15T06:06:45.000Z,4
2023-02-15T06:08:02.000Z,6
2023-02-15T06:09:18.000Z,8
2023-02-15T06:10:34.582Z,9
2023-02-15T06:11:50.807Z,12
2023-02-15T06:13:07.054Z,14
2023-02-15T06:14:23.296Z,18
2023-02-15T06:15:39.000Z,25
2023-02-15T06:16:55.000Z,29
2023-02-15T06:18:12.000Z,39
2023-02-15T06:19:28.000Z,51
2023-02-15T06:20:43.511Z,61
2023-02-15T06:21:59.752Z,81
2023-02-15T06:23:15.997Z,95
2023-02-15T06:24:32.000Z,114
2023-02-15T06:25:48.475Z,128
2023-02-15T06:27:04.000Z,148
2023-02-15T06:28:20.000Z,178
2023-02-15T06:29:37.000Z,201
2023-02-15T06:30:53.000Z,234
2023-02-15T06:32:09.684Z,265
2023-02-15T06:33:25.919Z,297
2023-02-15T06:34:42.000Z,334
2023-02-15T06:35:58.000Z,372
2023-02-15T06:37:14.000Z,415
2023-02-15T06:38:29.000Z,448
2023-02-15T06:39:46.000Z,490
2023-02-15T06:41:02.377Z,527
2023-02-15T06:42:18.000Z,574
2023-02-15T06:43:34.853Z,613
2023-02-15T06:44:51.100Z,656
2023-02-15T06:46:07.343Z,703
2023-02-15T06:47:23.000Z,744
2023-02-15T06:48:39.000Z,784
2023-02-15T06:49:56.000Z,826
2023-02-15T06:51:12.309Z,872
2023-02-15T06:52:28.000Z,927
2023-02-15T06:53:43.000Z,966
2023-02-15T06:55:00.041Z,1008
2023-02-15T06:56:16.280Z,1051
2023-02-15T06:57:32.527Z,1095
2023-02-15T06:58:48.000Z,1138
2023-02-15T07:00:05.000Z,1183
2023-02-15T07:01:21.243Z,1221
2023-02-15T07:02:37.000Z,1264
2023-02-15T07:03:53.720Z,1296
2023-02-15T07:05:09.000Z,1327
2023-02-15T07:06:26.220Z,1358
2023-02-15T07:07:42.447Z,1388
2023-02-15T07:08:58.688Z,1418
2023-02-15T07:10:14.000Z,1450
2023-02-15T07:11:30.181Z,1476
2023-02-15T07:12:46.000Z,1505
2023-02-15T07:14:02.678Z,1535
2023-02-15T07:15:18.000Z,1564
2023-02-15T07:16:35.142Z,1592
2023-02-15T07:17:51.391Z,1617
2023-02-15T07:19:07.628Z,1646
2023-02-15T07:20:23.000Z,1671
2023-02-15T07:21:40.000Z,1701
2023-02-15T07:22:56.000Z,1725
2023-02-15T07:24:12.000Z,1752
2023-02-15T07:25:28.000Z,1777
2023-02-15T07:26:45.000Z,1805
2023-02-15T07:28:00.000Z,1828
2023-02-15T07:29:16.564Z,1855
2023-02-15T07:30:32.807Z,1877
2023-02-15T07:31:49.000Z,1900
2023-02-15T07:33:05.000Z,1926
2023-02-15T07:34:21.000Z,1950
2023-02-15T07:35:37.000Z,1974
2023-02-15T07:36:54.017Z,1996
2023-02-15T07:38:10.000Z,2021
2023-02-15T07:39:26.495Z,2043
2023-02-15T07:40:42.743Z,2062
2023-02-15T07:41:58.000Z,2086
2023-02-15T07:43:15.000Z,2107
2023-02-15T07:44:30.000Z,2128
2023-02-15T07:45:46.000Z,2146
2023-02-15T07:47:02.000Z,2167
2023-02-15T07:48:19.000Z,2183
2023-02-15T07:49:35.000Z,2199
2023-02-15T07:50:51.665Z,2218
2023-02-15T07:52:07.898Z,2239
2023-02-15T07:53:24.000Z,2255
2023-02-15T07:54:40.000Z,2272
2023-02-15T07:55:56.000Z,2287
2023-02-15T07:57:12.869Z,2304
2023-02-15T07:58:29.000Z,2322
2023-02-15T07:59:45.000Z,2337
2023-02-15T08:01:00.000Z,2353
2023-02-15T08:02:16.861Z,2365
2023-02-15T08:03:33.078Z,2382
2023-02-15T08:04:49.327Z,2395
2023-02-15T08:06:05.000Z,2413
2023-02-15T08:07:21.000Z,2423
2023-02-15T08:08:38.000Z,2438
2023-02-15T08:09:54.000Z,2453
2023-02-15T08:11:10.000Z,2461
2023-02-15T08:12:26.773Z,2475
2023-02-15T08:13:43.004Z,2487
2023-02-15T08:14:59.243Z,2497
2023-02-15T08:16:15.497Z,2507
2023-02-15T08:17:31.000Z,2519
2023-02-15T08:18:47.000Z,2531
2023-02-15T08:20:03.000Z,2541
2023-02-15T08:21:19.000Z,2551
2023-02-15T08:22:35.000Z,2561
2023-02-15T08:23:51.000Z,2573
2023-02-15T08:25:08.000Z,2585
2023-02-15T08:26:24.431Z,2597
2023-02-15T08:27:40.662Z,2606
2023-02-15T08:28:56.893Z,2614
2023-02-15T08:30:13.000Z,2625
2023-02-15T08:31:29.000Z,2637
2023-02-15T08:32:45.000Z,2643
2023-02-15T08:34:01.000Z,2656
2023-02-15T08:35:18.000Z,2664
2023-02-15T08:36:34.473Z,2672
2023-02-15T08:37:50.713Z,2680
2023-02-15T08:39:06.000Z,2689
2023-02-15T08:40:23.000Z,2697
2023-02-15T08:41:39.000Z,2707
2023-02-15T08:42:55.671Z,2713
2023-02-15T08:44:11.000Z,2722
2023-02-15T08:45:28.000Z,2733
2023-02-15T08:46:44.000Z,2739
2023-02-15T08:48:00.625Z,2745
2023-02-15T08:49:16.000Z,2751
2023-02-15T08:50:33.000Z,2758
2023-02-15T08:51:48.000Z,2767
2023-02-15T08:53:04.000Z,2769
2023-02-15T08:54:20.000Z,2779
2023-02-15T08:55:37.000Z,2782
2023-02-15T08:56:53.000Z,2787
2023-02-15T08:58:09.562Z,2793
2023-02-15T08:59:25.797Z,2798
2023-02-15T09:00:42.042Z,2803
2023-02-15T09:01:58.000Z,2808
2023-02-15T09:03:14.000Z,2812
2023-02-15T09:04:30.000Z,2818
2023-02-15T09:05:47.000Z,2826
2023-02-15T09:07:03.000Z,2830
2023-02-15T09:08:18.000Z,2840
2023-02-15T09:09:34.000Z,2848
2023-02-15T09:10:51.000Z,2851
2023-02-15T09:12:07.231Z,2858
2023-02-15T09:13:23.467Z,2860
2023-02-15T09:14:39.000Z,2863
2023-02-15T09:15:55.000Z,2865
2023-02-15T09:17:12.000Z,2868
2023-02-15T09:18:28.000Z,2871
2023-02-15T09:19:44.000Z,2873
2023-02-15T09:21:00.000Z,2877
2023-02-15T09:22:17.000Z,2884
2023-02-15T09:23:33.396Z,2888
2023-02-15T09:24:48.653Z,2895
2023-02-15T09:26:04.886Z,2902
2023-02-15T09:27:21.000Z,2906
2023-02-15T09:28:37.000Z,2910
2023-02-15T09:29:53.000Z,2916
2023-02-15T09:31:09.832Z,2925
2023-02-15T09:32:26.000Z,2924
2023-02-15T09:33:42.000Z,2929
2023-02-15T09:34:58.554Z,2930
2023-02-15T09:36:14.814Z,2934
2023-02-15T09:37:31.000Z,2938
2023-02-15T09:38:47.000Z,2940
2023-02-15T09:40:03.000Z,2944
2023-02-15T09:41:18.000Z,2947
2023-02-15T09:42:35.000Z,2947
2023-02-15T09:43:51.000Z,2952
2023-02-15T09:45:07.498Z,2954
2023-02-15T09:46:23.731Z,2955
2023-02-15T09:47:40.000Z,2959
2023-02-15T09:48:56.000Z,2954
2023-02-15T09:50:12.000Z,2953
2023-02-15T09:51:28.000Z,2950
2023-02-15T09:52:44.000Z,2952
2023-02-15T09:54:01.000Z,2945
2023-02-15T09:55:17.419Z,2945
2023-02-15T09:56:33.645Z,2947
2023-02-15T09:57:50.000Z,2946
2023-02-15T09:59:06.264Z,2944
2023-02-15T10:00:22.497Z,2945
2023-02-15T10:01:38.000Z,2945
2023-02-15T10:02:55.000Z,2945
2023-02-15T10:04:11.000Z,2945
2023-02-15T10:05:27.000Z,2946
2023-02-15T10:06:43.712Z,2944
2023-02-15T10:07:59.931Z,2944
2023-02-15T10:09:16.000Z,2943
2023-02-15T10:10:32.000Z,2944
2023-02-15T10:11:48.000Z,2943
2023-02-15T10:13:04.000Z,2941
2023-02-15T10:14:20.000Z,2939
2023-02-15T10:15:36.000Z,2939
2023-02-15T10:16:52.000Z,2938
2023-02-15T10:18:08.876Z,2934
2023-02-15T10:19:25.102Z,2933
2023-02-15T10:20:41.000Z,2935
2023-02-15T10:21:57.000Z,2933
2023-02-15T10:23:13.000Z,2932
2023-02-15T10:24:30.072Z,2930
2023-02-15T10:25:46.000Z,2929
2023-02-15T10:27:02.000Z,2928
2023-02-15T10:28:18.000Z,2927
2023-02-15T10:29:35.036Z,2924
2023-02-15T10:30:51.274Z,2923
2023-02-15T10:32:06.000Z,2921
2023-02-15T10:33:22.773Z,2921
2023-02-15T10:34:39.000Z,2921
2023-02-15T10:35:55.000Z,2920
2023-02-15T10:37:11.000Z,2918
2023-02-15T10:38:27.000Z,2914
2023-02-15T10:39:43.984Z,2913
2023-02-15T10:41:00.216Z,2915
2023-02-15T10:42:16.452Z,2911
2023-02-15T10:43:32.000Z,2909
2023-02-15T10:44:48.000Z,2908
2023-02-15T10:46:05.000Z,2905
2023-02-15T10:47:21.000Z,2897
2023-02-15T10:48:36.000Z,2898
2023-02-15T10:49:52.000Z,2897
2023-02-15T10:51:09.000Z,2895
2023-02-15T10:52:25.382Z,2892
2023-02-15T10:53:41.000Z,2889
2023-02-15T10:54:57.878Z,2887
2023-02-15T10:56:14.000Z,2885
2023-02-15T10:57:30.000Z,2882
2023-02-15T10:58:46.000Z,2881
2023-02-15T11:00:02.820Z,2879
2023-02-15T11:01:19.065Z,2875
2023-02-15T11:02:35.300Z,2872
2023-02-15T11:03:51.000Z,2870
2023-02-15T11:05:06.000Z,2866
2023-02-15T11:06:23.000Z,2864
2023-02-15T11:07:39.291Z,2864
2023-02-15T11:08:55.000Z,2863
2023-02-15T11:10:10.792Z,2861
2023-02-15T11:11:27.000Z,2858
2023-02-15T11:12:43.272Z,2855
2023-02-15T11:13:59.499Z,2855
2023-02-15T11:15:15.742Z,2854
2023-02-15T11:16:32.000Z,2851
2023-02-15T11:17:48.238Z,2851
2023-02-15T11:19:04.000Z,2851
2023-02-15T11:20:20.000Z,2845
2023-02-15T11:21:36.000Z,2847
2023-02-15T11:22:53.000Z,2842
2023-02-15T11:24:09.435Z,2841
2023-02-15T11:25:25.653Z,2840
2023-02-15T11:26:40.918Z,2840
2023-02-15T11:27:57.000Z,2841
2023-02-15T11:29:13.000Z,2836
2023-02-15T11:30:29.000Z,2839
2023-02-15T11:31:45.000Z,2838
2023-02-15T11:33:02.121Z,2835
2023-02-15T11:34:18.000Z,2833
2023-02-15T11:35:34.595Z,2832
2023-02-15T11:36:50.846Z,2831
2023-02-15T11:38:07.092Z,2824
2023-02-15T11:39:23.000Z,2824
2023-02-15T11:40:39.550Z,2821
2023-02-15T11:41:55.000Z,2818
2023-02-15T11:43:11.000Z,2815
2023-02-15T11:44:27.000Z,2813
2023-02-15T11:45:43.000Z,2812
2023-02-15T11:46:59.000Z,2809
2023-02-15T11:48:15.998Z,2809
2023-02-15T11:49:32.250Z,2807
2023-02-15T11:50:48.493Z,2806
2023-02-15T11:52:04.727Z,2807
2023-02-15T11:53:20.000Z,2805
2023-02-15T11:54:37.000Z,2808
2023-02-15T11:55:53.000Z,2803
2023-02-15T11:57:09.000Z,2801
2023-02-15T11:58:25.000Z,2796
2023-02-15T11:59:41.000Z,2795
2023-02-15T12:00:57.412Z,2792
2023-02-15T12:02:13.676Z,2788
2023-02-15T12:03:29.902Z,2785
2023-02-15T12:04:46.000Z,2780
2023-02-15T12:06:02.000Z,2780
2023-02-15T12:07:18.000Z,2777
2023-02-15T12:08:34.856Z,2775
2023-02-15T12:09:51.000Z,2771
2023-02-15T12:11:07.330Z,2767
2023-02-15T12:12:23.583Z,2765
2023-02-15T12:13:39.826Z,2764
2023-02-15T12:14:56.000Z,2761
2023-02-15T12:16:11.000Z,2759
2023-02-15T12:17:27.000Z,2758
2023-02-15T12:18:43.000Z,2753
2023-02-15T12:20:00.000Z,2751
2023-02-15T12:21:16.000Z,2750
2023-02-15T12:22:32.000Z,2749
2023-02-15T12:23:48.741Z,2743
2023-02-15T12:25:04.998Z,2738
2023-02-15T12:26:21.246Z,2736
2023-02-15T12:27:37.000Z,2732
2023-02-15T12:28:53.000Z,2726
2023-02-15T12:30:09.000Z,2721
2023-02-15T12:31:26.000Z,2718
2023-02-15T12:32:41.000Z,2713
2023-02-15T12:33:57.684Z,2712
2023-02-15T12:35:13.935Z,2711
2023-02-15T12:36:30.170Z,2710
2023-02-15T12:37:46.000Z,2707
2023-02-15T12:39:02.642Z,2702
2023-02-15T12:40:18.000Z,2700
2023-02-15T12:41:35.119Z,2701
2023-02-15T12:42:51.000Z,2701
2023-02-15T12:44:07.587Z,2696
2023-02-15T12:45:23.841Z,2694
2023-02-15T12:46:40.081Z,2694
2023-02-15T12:47:56.328Z,2692
2023-02-15T12:49:11.567Z,2690
2023-02-15T12:50:27.814Z,2685
2023-02-15T12:51:44.047Z,2683
2023-02-15T12:53:00.293Z,2680
2023-02-15T12:54:16.530Z,2673
2023-02-15T12:55:32.773Z,2675
2023-02-15T12:56:49.011Z,2672
2023-02-15T12:58:05.267Z,2669
2023-02-15T12:59:21.000Z,2670
2023-02-15T13:00:37.000Z,2669
2023-02-15T13:01:53.000Z,2672
2023-02-15T13:03:10.000Z,2667
2023-02-15T13:04:26.446Z,2663
2023-02-15T13:05:41.000Z,2662
2023-02-15T13:06:57.000Z,2657
2023-02-15T13:08:14.182Z,2651
2023-02-15T13:09:30.418Z,2646
2023-02-15T13:10:46.000Z,2641
2023-02-15T13:12:02.888Z,2642
2023-02-15T13:13:19.000Z,2633
2023-02-15T13:14:35.000Z,2631
2023-02-15T13:15:51.000Z,2626
2023-02-15T13:17:07.856Z,2619
2023-02-15T13:18:24.084Z,2616
2023-02-15T13:19:40.349Z,2614
2023-02-15T13:20:56.586Z,2610
2023-02-15T13:22:11.000Z,2610
2023-02-15T13:23:28.000Z,2609
2023-02-15T13:24:44.321Z,2611
2023-02-15T13:26:00.000Z,2606
2023-02-15T13:27:16.782Z,2599
2023-02-15T13:28:33.000Z,2594
2023-02-15T13:29:49.287Z,2591
2023-02-15T13:31:05.501Z,2584
2023-02-15T13:32:21.749Z,2582
2023-02-15T13:33:38.000Z,2579
2023-02-15T13:34:54.229Z,2575
2023-02-15T13:36:10.000Z,2571
2023-02-15T13:37:26.000Z,2569
2023-02-15T13:38:41.000Z,2564
2023-02-15T13:39:58.208Z,2562
2023-02-15T13:41:14.449Z,2559
2023-02-15T13:42:30.675Z,2553
2023-02-15T13:43:46.000Z,2551
2023-02-15T13:45:03.000Z,2546
2023-02-15T13:46:19.000Z,2544
2023-02-15T13:47:35.649Z,2541
2023-02-15T13:48:51.000Z,2538
2023-02-15T13:50:08.130Z,2533
2023-02-15T13:51:24.000Z,2528
2023-02-15T13:52:40.586Z,2525
2023-02-15T13:53:56.841Z,2521
2023-02-15T13:55:12.095Z,2518
2023-02-15T13:56:28.000Z,2515
2023-02-15T13:57:44.571Z,2507
2023-02-15T13:59:00.000Z,2502
2023-02-15T14:00:17.000Z,2497
2023-02-15T14:01:33.000Z,2494
2023-02-15T14:02:49.000Z,2486
2023-02-15T14:04:05.756Z,2481
2023-02-15T14:05:21.997Z,2473
2023-02-15T14:06:38.000Z,2469
2023-02-15T14:07:54.000Z,2462
2023-02-15T14:09:10.000Z,2458
2023-02-15T14:10:26.000Z,2454
2023-02-15T14:11:42.000Z,2452
2023-02-15T14:12:58.461Z,2444
2023-02-15T14:14:14.000Z,2440
2023-02-15T14:15:30.962Z,2437
2023-02-15T14:16:47.178Z,2429
2023-02-15T14:18:03.427Z,2421
2023-02-15T14:19:19.000Z,2418
2023-02-15T14:20:35.907Z,2412
2023-02-15T14:21:52.000Z,2407
2023-02-15T14:23:08.383Z,2397
2023-02-15T14:24:24.000Z,2388
2023-02-15T14:25:40.856Z,2380
2023-02-15T14:26:57.107Z,2373
2023-02-15T14:28:12.370Z,2366
2023-02-15T14:29:28.000Z,2360
2023-02-15T14:30:44.000Z,2351
2023-02-15T14:32:01.077Z,2346
2023-02-15T14:33:17.314Z,2339
2023-02-15T14:34:33.000Z,2334
2023-02-15T14:35:49.789Z,2327
2023-02-15T14:37:06.020Z,2321
2023-02-15T14:38:22.271Z,2316
2023-02-15T14:39:38.000Z,2309
2023-02-15T14:40:54.000Z,2306
2023-02-15T14:42:11.000Z,2302
2023-02-15T14:43:27.223Z,2295
2023-02-15T14:44:42.000Z,2287
2023-02-15T14:45:58.000Z,2277
2023-02-15T14:47:14.966Z,2274
2023-02-15T14:48:31.203Z,2262
2023-02-15T14:49:47.000Z,2255
2023-02-15T14:51:03.679Z,2246
2023-02-15T14:52:19.000Z,2241
2023-02-15T14:53:36.000Z,2233
2023-02-15T14:54:52.000Z,2226
2023-02-15T14:56:08.000Z,2216
2023-02-15T14:57:24.882Z,2210
2023-02-15T14:58:41.126Z,2197
2023-02-15T14:59:57.346Z,2187
2023-02-15T15:01:12.000Z,2171
2023-02-15T15:02:28.000Z,2159
2023-02-15T15:03:45.078Z,2143
2023-02-15T15:05:01.000Z,2133
2023-02-15T15:06:17.586Z,2118
2023-02-15T15:07:33.000Z,2103
2023-02-15T15:08:50.051Z,2082
2023-02-15T15:10:06.305Z,2055
2023-02-15T15:11:22.531Z,2032
2023-02-15T15:12:38.000Z,2019
2023-02-15T15:13:55.001Z,2010
2023-02-15T15:15:11.000Z,2003
2023-02-15T15:16:27.492Z,1995
2023-02-15T15:17:42.000Z,1985
2023-02-15T15:18:58.977Z,1981
2023-02-15T15:20:15.228Z,1972
2023-02-15T15:21:31.457Z,1960
2023-02-15T15:22:47.714Z,1953
2023-02-15T15:24:03.924Z,1928
2023-02-15T15:25:19.000Z,1898
2023-02-15T15:26:35.456Z,1880
2023-02-15T15:27:51.000Z,1859
2023-02-15T15:29:07.912Z,1836
2023-02-15T15:30:24.000Z,1806
2023-02-15T15:31:40.000Z,1773
2023-02-15T15:32:56.000Z,1744
2023-02-15T15:34:12.882Z,1710
2023-02-15T15:35:29.122Z,1685
2023-02-15T15:36:45.364Z,1649
2023-02-15T15:38:01.000Z,1591
2023-02-15T15:39:17.000Z,1569
2023-02-15T15:40:34.000Z,1529
2023-02-15T15:41:50.000Z,1487
2023-02-15T15:43:06.000Z,1456
2023-02-15T15:44:22.921Z,1420
2023-02-15T15:45:39.161Z,1377
2023-02-15T15:46:55.395Z,1347
2023-02-15T15:48:11.000Z,1302
2023-02-15T15:49:27.000Z,1264
2023-02-15T15:50:44.000Z,1231
2023-02-15T15:52:00.353Z,1185
2023-02-15T15:53:16.000Z,1142
2023-02-15T15:54:32.836Z,1101
2023-02-15T15:55:49.081Z,1059
2023-02-15T15:57:05.311Z,1018
2023-02-15T15:58:21.000Z,977
2023-02-15T15:59:37.914Z,932
2023-02-15T16:00:54.000Z,888
2023-02-15T16:02:10.000Z,845
2023-02-15T16:03:26.000Z,799
2023-02-15T16:04:42.877Z,755
2023-02-15T16:05:59.115Z,721
2023-02-15T16:07:15.365Z,678
2023-02-15T16:08:31.000Z,642
2023-02-15T16:09:47.000Z,607
2023-02-15T16:11:04.000Z,575
2023-02-15T16:12:20.000Z,529
2023-02-15T16:13:36.536Z,484
2023-02-15T16:14:52.895Z,446
2023-02-15T16:16:09.154Z,410
2023-02-15T16:17:25.394Z,366
2023-02-15T16:18:41.000Z,334
2023-02-15T16:19:57.000Z,303
2023-02-15T16:21:14.000Z,280
2023-02-15T16:22:30.000Z,253
2023-02-15T16:23:46.000Z,225
2023-02-15T16:25:02.000Z,207
2023-02-15T16:26:19.063Z,188
2023-02-15T16:27:35.307Z,168
2023-02-15T16:28:51.000Z,146
2023-02-15T16:30:07.000Z,128
2023-02-15T16:31:23.000Z,113
2023-02-15T16:32:39.000Z,99
2023-02-15T16:33:55.000Z,84
2023-02-15T16:35:11.762Z,73
2023-02-15T16:36:27.985Z,64
2023-02-15T16:37:44.255Z,56
2023-02-15T16:39:00.481Z,53
2023-02-15T16:40:16.000Z,41
2023-02-15T16:41:32.000Z,36
2023-02-15T16:42:49.184Z,28
2023-02-15T16:44:05.000Z,24
2023-02-15T16:45:21.678Z,18
2023-02-15T16:46:37.000Z,15
2023-02-15T16:47:53.153Z,13
2023-02-15T16:49:09.426Z,10
2023-02-15T16:50:25.656Z,10
2023-02-15T16:51:41.900Z,8
2023-02-15T16:52:58.141Z,2
2023-02-15T16:54:14.000Z,3
2023-02-15T16:55:30.000Z,2
2023-02-15T16:56:46.000Z,1
2023-02-15T16:58:03.000Z,2
2023-02-15T16:59:19.000Z,2
2023-02-15T17:00:35.572Z,1
2023-02-15T17:01:51.807Z,1
2023-02-15T17:03:08.000Z,1
2023-02-15T17:04:23.000Z,1
2023-02-15T17:05:39.000Z,0
2023-02-15T17:06:55.000Z,0
2023-02-15T17:08:12.183Z,0
2023-02-15T17:09:28.000Z,0
2023-02-15T17:10:44.775Z,0
2023-02-15T17:12:01.069Z,0
2023-02-15T17:13:17.000Z,0
2023-02-15T17:14:33.000Z,0
2023-02-15T17:15:49.944Z,0
2023-02-15T17:17:06.000Z,0
2023-02-15T17:18:22.000Z,0
2023-02-15T17:19:38.000Z,0
2023-02-15T17:20:54.000Z,0
2023-02-15T17:22:10.422Z,0
2023-02-15T17:23:26.720Z,0
2023-02-15T17:24:43.000Z,0
2023-02-15T17:25:59.000Z,0
2023-02-15T17:27:15.000Z,0
2023-02-15T17:28:31.897Z,0
2023-02-15T17:29:48.000Z,0
2023-02-15T17:31:04.000Z,0
2023-02-15T17:32:20.782Z,0
2023-02-15T17:33:37.072Z,0
2023-02-15T17:34:53.000Z,0
2023-02-15T17:36:09.000Z,0
2023-02-15T17:37:24.000Z,0
2023-02-15T17:38:41.277Z,0
2023-02-15T17:39:57.000Z,0
2023-02-15T17:41:13.000Z,0